Latest Weather Observations for Inverell RS

IDN60801

Issued at 10:02 pm EDT Tuesday 31 March 2015 (issued every 30 minutes, with the page automatically refreshed every 10 minutes)

About weather observations | Map of weather stations | Latest weather observations for NSW | Other Formats
Station Details ID: 056018 Name: INVERELL RESEARCH CENTRE Lat: -29.78 Lon: 151.08 Height: 664.0 m
Data from the previous 72 hours. | See also: Recent months at Inverell RS
Date/Time
EDT
Temp
°C
App
Temp
°C
Dew
Point
Rel
Hum
%
Delta-T
°C
Wind Press
QNH
hPa
Press
MSL
hPa
Rain
since 9 am
mm
Dir
 
Spd
km/h
Gust
km/h
Spd
kts
Gust
kts
31/10:00pm 16.3 16.3 14.3 88 1.2 NE 7 11 4 6 1024.8 - 14.6
31/09:30pm 16.3 16.5 14.6 90 1.0 NE 7 9 4 5 1024.8 - 14.6
31/09:00pm 16.4 15.8 14.5 88 1.1 E 11 15 6 8 1024.7 1021.8 14.6
31/08:30pm 16.4 16.5 15.4 94 0.6 ESE 9 13 5 7 1024.5 - 14.4
31/08:00pm 16.5 16.7 15.8 96 0.4 ESE 9 15 5 8 1024.5 - 13.6
31/07:30pm 16.8 16.9 15.6 93 0.7 ENE 9 20 5 11 1024.1 - 12.0
31/07:00pm 16.8 17.4 15.8 94 0.6 WNW 7 9 4 5 1023.9 - 9.6
31/06:30pm 18.2 18.2 15.2 82 1.8 NE 9 15 5 8 1023.3 - 0.2
31/06:00pm 18.6 18.2 14.2 75 2.6 S 9 15 5 8 1022.7 1019.7 0.2
31/05:30pm 19.5 18.8 13.2 67 3.7 S 9 15 5 8 1022.4 - 0.2
31/05:00pm 20.3 19.1 11.7 57 4.9 SE 9 13 5 7 1022.0 - 0.2
31/04:30pm 20.4 18.4 11.6 57 5.0 SSE 13 20 7 11 1021.9 - 0.2
31/04:00pm 22.6 22.1 12.7 53 5.8 ESE 7 19 4 10 1021.9 - 0.2
31/03:30pm 24.0 22.4 12.9 50 6.6 WNW 13 19 7 10 1021.9 - 0.2
31/03:00pm 23.8 22.9 14.8 57 5.5 NW 13 19 7 10 1022.2 1019.1 0.2
31/02:30pm 22.0 21.1 13.6 59 5.0 WNW 11 17 6 9 1022.6 - 0.2
31/02:00pm 22.0 21.9 14.0 60 4.8 WSW 7 11 4 6 1022.8 - 0.2
31/01:30pm 23.2 23.4 14.3 57 5.4 SSE 6 9 3 5 1023.3 - 0.2
31/01:00pm 22.4 22.9 15.6 65 4.2 SSW 7 11 4 6 1024.0 - 0.2
31/12:30pm 20.7 20.5 14.7 68 3.6 S 9 13 5 7 1024.6 - 0.2
31/12:00pm 20.1 20.1 15.1 73 3.0 SSW 9 11 5 6 1025.1 1022.2 0.2
31/11:30am 18.9 19.5 15.4 80 2.1 SW 6 9 3 5 1025.5 - 0.2
31/11:00am 18.0 18.5 15.0 82 1.8 S 6 7 3 4 1025.7 - 0.2
31/10:30am 17.5 18.1 15.7 89 1.1 SSE 7 11 4 6 1025.6 - 0.2
31/10:00am 16.8 17.0 15.8 94 0.6 ESE 9 13 5 7 1025.4 - 0.2
31/09:30am 16.6 18.3 15.3 92 0.8 CALM 0 0 0 0 1025.5 - 0.2
31/09:00am 16.2 18.0 15.4 95 0.5 CALM 0 0 0 0 1025.4 1022.4 13.4
31/08:30am 15.9 16.9 15.4 97 0.3 N 4 7 2 4 1025.1 - 13.2
31/08:00am 15.7 17.4 15.2 97 0.3 CALM 0 0 0 0 1024.8 - 13.2
31/07:30am 15.7 16.3 15.2 97 0.3 SW 6 7 3 4 1024.6 - 13.2
31/07:00am 15.5 17.2 15.2 98 0.2 CALM 0 6 0 3 1024.3 - 13.2
31/06:30am 15.6 17.3 15.3 98 0.2 CALM 0 0 0 0 1024.1 - 13.0
31/06:00am 15.6 17.3 15.3 98 0.2 CALM 0 0 0 0 1024.0 1021.0 12.8
31/05:30am 15.5 17.2 15.2 98 0.2 CALM 0 0 0 0 1023.9 - 12.6
31/05:00am 15.6 17.0 15.3 98 0.2 N 2 7 1 4 1023.6 - 12.4
31/04:30am 15.6 16.6 15.3 98 0.2 NE 4 7 2 4 1023.5 - 11.4
31/04:00am 15.6 16.0 15.4 99 0.1 N 7 9 4 5 1024.0 - 10.6
31/03:30am 15.6 16.0 15.3 98 0.2 NNE 7 9 4 5 1024.0 - 9.8
31/03:00am 15.8 16.2 15.3 97 0.3 N 7 9 4 5 1024.2 1021.2 9.4
31/02:30am 15.9 16.5 15.4 97 0.3 NE 6 7 3 4 1024.6 - 9.0
31/02:00am 16.0 16.4 15.2 95 0.5 SSE 7 9 4 5 1024.9 - 7.8
31/01:30am 16.4 18.1 15.2 93 0.7 CALM 0 0 0 0 1025.1 - 7.2
31/01:00am 15.9 16.9 15.4 97 0.3 SE 4 7 2 4 1025.0 - 7.0
31/12:30am 15.8 16.3 15.1 96 0.4 S 6 9 3 5 1025.2 - 7.0
31/12:00am 16.1 16.6 15.1 94 0.6 SSE 6 7 3 4 1025.4 1022.4 7.0
 
Date/Time
EDT
Temp
°C
App
Temp
°C
Dew
Point
Rel
Hum
%
Delta-T
°C
Wind Press
QNH
hPa
Press
MSL
hPa
Rain
since 9 am
mm
Dir
 
Spd
km/h
Gust
km/h
Spd
kts
Gust
kts
30/11:30pm 15.9 17.5 14.9 94 0.6 CALM 0 0 0 0 1025.7 - 7.0
30/11:00pm 16.0 16.9 15.2 95 0.5 SSE 4 7 2 4 1025.8 - 7.0
30/10:30pm 16.3 16.1 14.8 91 0.9 S 9 13 5 7 1025.8 - 7.0
30/10:00pm 16.4 16.3 14.9 91 0.9 SSW 9 13 5 7 1025.8 - 6.8
30/09:30pm 16.6 15.9 15.4 93 0.7 WSW 13 17 7 9 1025.8 - 5.8
30/09:00pm 17.4 17.0 15.1 86 1.4 SSW 11 15 6 8 1025.6 1022.5 5.2
30/08:30pm 17.7 18.0 16.1 90 1.0 S 9 13 5 7 1025.2 - 5.2
30/08:00pm 17.6 17.9 16.0 90 1.0 SSW 9 11 5 6 1025.0 - 5.2
30/07:30pm 17.4 18.2 16.4 94 0.6 S 7 9 4 5 1024.6 - 5.2
30/07:00pm 17.5 18.9 16.4 93 0.7 S 4 7 2 4 1024.4 - 5.2
30/06:30pm 17.8 19.5 16.2 90 1.0 SSE 2 7 1 4 1024.3 - 5.2
30/06:00pm 17.5 18.4 16.2 92 0.8 S 6 7 3 4 1024.1 1021.1 5.2
30/05:30pm 17.3 18.0 16.0 92 0.8 SSE 7 7 4 4 1024.0 - 5.2
30/05:00pm 17.5 19.4 15.8 90 1.0 CALM 0 7 0 4 1023.8 - 5.2
30/04:30pm 17.3 17.5 15.8 91 0.9 SE 9 11 5 6 1023.4 - 5.0
30/04:00pm 17.5 17.6 16.5 94 0.6 SSW 11 15 6 8 1023.9 - 4.8
30/03:30pm 17.7 18.1 16.4 92 0.8 SW 9 13 5 7 1024.1 - 4.2
30/03:00pm 18.7 19.5 16.4 86 1.4 W 7 11 4 6 1024.2 1021.2 4.0
30/02:30pm 19.4 21.5 16.3 82 1.9 CALM 0 0 0 0 1024.3 - 3.2
30/02:00pm 19.6 20.7 16.5 82 1.9 N 6 9 3 5 1024.3 - 3.2
30/01:30pm 19.4 19.8 16.3 82 1.9 NNE 9 11 5 6 1024.7 - 3.2
30/01:00pm 19.8 20.4 16.9 83 1.8 NE 9 15 5 8 1024.9 - 3.2
30/12:30pm 18.0 18.8 17.2 95 0.5 NNE 9 13 5 7 1025.5 - 3.2
30/12:00pm 17.8 18.0 16.7 93 0.7 NNE 11 15 6 8 1025.9 1023.0 2.6
30/11:30am 17.9 18.1 16.8 93 0.7 N 11 15 6 8 1026.3 - 2.4
30/11:00am 17.8 18.7 16.5 92 0.8 N 7 11 4 6 1026.4 - 2.2
30/10:30am 17.7 18.4 16.2 91 0.9 WNW 7 13 4 7 1026.4 - 1.4
30/10:00am 17.7 18.2 15.5 87 1.3 NNW 7 13 4 7 1026.2 - 0.0
30/09:30am 17.4 19.0 15.9 91 0.9 NNW 2 7 1 4 1025.9 - 0.0
30/09:00am 17.0 17.6 15.3 90 1.0 E 6 9 3 5 1025.8 1022.7 1.2
30/08:30am 18.0 17.8 13.5 75 2.6 S 7 11 4 6 1025.6 - 0.0
30/08:00am 17.6 18.8 13.7 78 2.3 CALM 0 0 0 0 1024.9 - 0.0
30/07:30am 17.4 17.7 13.4 77 2.3 NNE 4 7 2 4 1024.6 - 0.0
30/07:00am 17.0 17.7 13.4 79 2.1 NNW 2 6 1 3 1024.7 - 0.0
30/06:30am 17.0 17.6 13.2 78 2.2 E 2 7 1 4 1024.3 - 0.0
30/06:00am 16.7 16.9 12.9 78 2.2 SSE 4 7 2 4 1023.9 1020.8 0.0
30/05:30am 16.2 15.2 12.3 78 2.2 SSE 9 11 5 6 1023.5 - 0.0
30/05:00am 15.7 14.9 11.6 76 2.3 SE 7 11 4 6 1023.0 - 0.0
30/04:30am 15.6 15.7 10.2 70 2.9 CALM 0 0 0 0 1023.2 - 0.0
30/04:00am 15.4 15.4 9.8 69 3.0 CALM 0 0 0 0 1023.1 - 0.0
30/03:30am 15.7 15.7 9.9 68 3.1 CALM 0 0 0 0 1023.2 - 0.0
30/03:00am 16.0 16.0 9.9 67 3.3 CALM 0 0 0 0 1023.3 1020.4 0.0
30/02:30am 15.8 15.7 9.4 65 3.4 CALM 0 0 0 0 1023.3 - 0.0
30/02:00am 16.0 14.5 9.2 64 3.6 N 7 9 4 5 1023.4 - 0.0
30/01:30am 16.0 14.6 9.5 65 3.5 ESE 7 9 4 5 1023.5 - 0.0
30/01:00am 16.3 15.0 10.0 66 3.4 S 7 9 4 5 1023.4 - 0.0
30/12:30am 16.2 14.6 10.1 67 3.3 S 9 11 5 6 1023.6 - 0.0
30/12:00am 16.9 15.9 10.3 65 3.6 SSE 6 9 3 5 1024.0 1021.0 0.0
 
Date/Time
EDT
Temp
°C
App
Temp
°C
Dew
Point
Rel
Hum
%
Delta-T
°C
Wind Press
QNH
hPa
Press
MSL
hPa
Rain
since 9 am
mm
Dir
 
Spd
km/h
Gust
km/h
Spd
kts
Gust
kts
29/11:30pm 17.1 15.8 9.9 62 3.9 S 7 9 4 5 1024.1 - 0.0
29/11:00pm 18.4 17.1 9.8 57 4.7 S 7 9 4 5 1024.2 - 0.0
29/10:30pm 18.4 16.7 9.8 57 4.7 S 9 9 5 5 1024.0 - 0.0
29/10:00pm 18.7 17.5 10.2 57 4.7 SSE 7 9 4 5 1024.3 - 0.0
29/09:30pm 19.4 18.7 10.2 55 5.1 S 4 6 2 3 1024.3 - 0.0
29/09:00pm 20.2 19.1 9.9 51 5.7 S 6 7 3 4 1023.9 1020.9 0.0
29/08:30pm 21.2 19.8 9.6 47 6.4 SSW 7 9 4 5 1023.5 - 0.0
29/08:00pm 22.0 20.4 10.2 47 6.6 SW 9 11 5 6 1023.5 - 0.0
29/07:30pm 21.3 19.8 10.4 49 6.1 SW 9 9 5 5 1023.3 - 0.0
29/07:00pm 22.8 22.0 9.5 42 7.4 SW 4 7 2 4 1022.9 - 0.0
29/06:30pm 23.3 23.3 9.9 42 7.5 CALM 0 0 0 0 1022.5 - 0.0
29/06:00pm 25.7 24.4 9.1 35 9.3 WNW 6 9 3 5 1022.2 1019.2 0.0
29/05:30pm 25.2 23.6 10.3 39 8.5 NNW 9 17 5 9 1021.8 - 0.0
29/05:00pm 25.8 25.0 9.7 36 9.1 NW 4 7 2 4 1021.8 - 0.0
29/04:30pm 26.2 24.8 9.4 34 9.5 W 7 11 4 6 1021.8 - 0.0
29/04:00pm 25.9 23.8 8.1 32 9.8 NNW 9 17 5 9 1022.0 - 0.0
29/03:30pm 25.9 24.5 8.9 34 9.5 N 6 11 3 6 1022.5 - 0.0
29/03:00pm 26.1 24.6 10.4 37 9.0 NW 9 15 5 8 1022.9 1019.9 0.0
29/02:30pm 24.9 23.3 10.1 39 8.4 SSW 9 19 5 10 1023.2 - 0.0
29/02:00pm 26.1 24.2 10.6 37 8.9 NNW 11 17 6 9 1023.6 - 0.0
29/01:30pm 25.1 23.6 10.6 40 8.3 NNW 9 15 5 8 1024.0 - 0.0
29/01:00pm 24.2 21.7 9.8 40 8.1 N 13 19 7 10 1024.3 - 0.0
29/12:30pm 23.4 21.3 11.0 45 7.1 N 13 20 7 11 1024.7 - 0.0
29/12:00pm 23.2 21.9 12.4 50 6.3 NNE 11 20 6 11 1025.2 1022.4 0.0
29/11:30am 22.9 21.7 13.9 57 5.4 N 13 19 7 10 1025.5 - 0.0
29/11:00am 22.4 21.2 14.1 59 5.0 N 13 20 7 11 1025.5 - 0.0
29/10:30am 21.3 20.6 14.3 64 4.2 N 11 17 6 9 1025.6 - 0.0
29/10:00am 20.7 19.6 14.3 66 3.8 NE 13 19 7 10 1025.9 - 0.0
29/09:30am 19.1 18.7 14.0 72 3.0 NNE 9 13 5 7 1025.8 - 0.0
29/09:00am 17.3 17.7 15.3 88 1.2 NE 7 11 4 6 1025.4 1022.4 0.0
29/08:30am 16.3 17.4 13.5 83 1.6 CALM 0 0 0 0 1024.9 - 0.0
29/08:00am 15.4 15.5 12.8 84 1.5 N 4 7 2 4 1024.5 - 0.0
29/07:30am 14.5 15.3 12.5 88 1.1 CALM 0 0 0 0 1024.0 - 0.0
29/07:00am 14.1 14.4 12.3 89 1.0 NNE 2 6 1 3 1023.5 - 0.0
29/06:30am 14.1 13.6 12.1 88 1.1 N 6 7 3 4 1023.2 - 0.0
29/06:00am 14.3 14.3 12.3 88 1.1 NNE 4 7 2 4 1022.8 1019.8 0.0
29/05:30am 14.3 15.0 12.3 88 1.1 CALM 0 0 0 0 1022.6 - 0.0
29/05:00am 15.0 15.8 12.7 86 1.3 CALM 0 0 0 0 1022.3 - 0.0
29/04:30am 14.7 15.2 12.9 89 1.0 E 2 7 1 4 1022.0 - 0.0
29/04:00am 14.8 15.6 12.7 87 1.2 CALM 0 0 0 0 1021.9 - 0.0
29/03:30am 15.3 15.0 12.8 85 1.4 ENE 6 9 3 5 1022.2 - 0.0
29/03:00am 14.9 14.6 12.6 86 1.3 ESE 6 9 3 5 1022.4 1019.4 0.0
29/02:30am 14.4 13.7 12.1 86 1.3 ESE 7 9 4 5 1022.5 - 0.0
29/02:00am 14.5 13.6 11.4 82 1.7 SE 7 11 4 6 1022.5 - 0.0
29/01:30am 14.9 15.1 10.5 75 2.4 CALM 0 0 0 0 1022.5 - 0.0
29/01:00am 15.2 13.9 9.2 67 3.2 SE 6 7 3 4 1022.7 - 0.0
29/12:30am 15.4 14.1 9.2 66 3.3 SE 6 9 3 5 1022.8 - 0.0
29/12:00am 15.3 13.8 8.4 63 3.6 SSE 6 7 3 4 1022.8 1019.8 0.0
 
Date/Time
EDT
Temp
°C
App
Temp
°C
Dew
Point
Rel
Hum
%
Delta-T
°C
Wind Press
QNH
hPa
Press
MSL
hPa
Rain
since 9 am
mm
Dir
 
Spd
km/h
Gust
km/h
Spd
kts
Gust
kts
28/11:30pm 15.2 12.6 4.1 47 5.3 S 7 9 4 5 1022.9 - 0.0
28/11:00pm 14.4 10.9 1.2 40 5.9 SSE 9 13 5 7 1023.0 - 0.0
28/10:30pm 16.9 13.5 -0.3 31 7.6 S 7 9 4 5 1022.9 - 0.0

Other Formats:

Comma delimited format used in spreadsheet applications
http://www.bom.gov.au/fwo/IDN60801/IDN60801.94541.axf

JavaScript Object Notation format (JSON) in row-major order
http://www.bom.gov.au/fwo/IDN60801/IDN60801.94541.json